Saint Johns, AZ (85936)

4:12 PM MST on February 27, 2017 (GMT -0700)
Saint Johns Industrial | | Change Station
Active Advisory: Wind Advisory

Elev 5735 ft 34.52 °N, 109.38 °W | Updated 18 minutes ago

Clear
Clear
53 °F
Feels Like 53 °F
N
24
Wind Variable Wind from SW
Gusts 40 mph

Today
High -- | Low -- °F
--% Chance of Precip.
Yesterday
High -- | Low -- °F
Precip. -- in
Pressure 29.80 in
Visibility 10.0 miles
Clouds Clear
Dew Point 29 °F
Humidity 40%
Rainfall 0.00 in
Snow Depth Not available.
6:48 AM 6:12 PM
New Moon, 2% visible
METAR KSJN 272254Z AUTO 23021G35KT 10SM CLR 12/M02 A2986 RMK AO2 PK WND 24039/2243 SLP089 T01171017 TSNO
Pressure 29.80 in
Visibility 10.0 miles
Clouds Clear
Dew Point 29 °F
Humidity 40%
Rainfall 0.00 in
Snow Depth Not available.
6:48 AM 6:12 PM
New Moon, 2% visible
METAR KSJN 272254Z AUTO 23021G35KT 10SM CLR 12/M02 A2986 RMK AO2 PK WND 24039/2243 SLP089 T01171017 TSNO

Get Your Daily Forecast Email!

Thanks for signing up!

Be on the lookout for a verification email in your inbox.

You'll start receiving the daily forecast at 8 AM.

×

10-Day Weather Forecast

Almanac

Astronomy

Feb. 27, 2017 Rise Set
Actual Time
Civil Twilight
Nautical Twilight
Astronomical Twilight
Moon
Length of Visible Light
Length of Day
Tomorrow will be .
, % of the Moon is Illuminated

Today's Extremes

State Highs State Lows

Community

WunderPhotos

Upload Photos

1,962,540 photos uploaded!

WunderBlog® & News

Nearby

Air Quality

  Air Quality AQ Index Pollutant
Not available.

Snow Depth

Station Depth Elevation

Earthquake Activity

City Distance Mag. Time & Date
Minimum magnitude displayed is 2.5.

Coastal Water Temperatures

Place Temperature

Stations

Nearby Weather Stations

Station Location Temp. Windchill Dew Point Humidity Wind Precip. Elev Updated Type
                   

Watches & Warnings

Wind Advisory
Issued: 2:50 PM MST Feb. 27, 2017 – National Weather Service

... Wind Advisory remains in effect until 8 PM MST this evening...

* timing... through 8 PM MST this evening.

* Winds... southwesterly wind gusts up to 45 mph will occur from
Tuba City to wupatki, Meteor Crater to Winslow, and from
Snowflake to Concho.

* Impacts... driving could become difficult at times, especially
for high profile vehicles on east-west oriented roads,
including Interstate 40.

Precautionary/preparedness actions...

A Wind Advisory means that sustained winds of 30 to 39 mph... or
gusts from 40 to 57 mph... are expected. Winds this strong can
make driving difficult... especially for high profile vehicles.
Consider securing loose belongings on your property. Additional
weather information is on the web at www.Weather.Gov/Flagstaff.



Tm